You are not logged in, Click here to log in
ICAO: EDFH Country: 德國萊因蘭-法爾茲邦基希貝格鎮(Kirchberg)、由舊的美國空軍軍機場改建而成的商用航空機場,距
Latitude: 49.9487 Longitude: 7.26389
Total Arrivals: 1 Total Departures: 0
Latest Arrival: 7L223 (UKBB-EDFH)KE. CHIH-HAO Latest Departure: (-).
Scenery:
METAR : EDFH 180050Z 16005KT 4000 -RA BR FEW003 SCT020 15/15 Q1010

法蘭克福-哈恩機場HHN